createdAt,value
2023-11-16T00:00:21.486Z,0.062
2023-11-16T00:01:21.410Z,0.062
2023-11-16T00:02:21.486Z,0.062
2023-11-16T00:03:21.924Z,0.071
2023-11-16T00:04:21.988Z,0.080
2023-11-16T00:05:20.737Z,0.071
2023-11-16T00:06:21.692Z,0.071
2023-11-16T00:07:21.527Z,0.071
2023-11-16T00:08:21.312Z,0.071
2023-11-16T00:10:21.219Z,0.071
2023-11-16T00:11:21.131Z,0.071
2023-11-16T00:12:21.589Z,0.071
2023-11-16T00:13:21.562Z,0.062
2023-11-16T00:15:21.305Z,0.062
2023-11-16T00:16:21.429Z,0.062
2023-11-16T00:17:21.214Z,0.062
2023-11-16T00:18:21.353Z,0.062
2023-11-16T00:20:20.713Z,0.054
2023-11-16T00:21:21.758Z,0.054
2023-11-16T00:23:21.177Z,0.045
2023-11-16T00:25:20.837Z,0.036
2023-11-16T00:26:21.619Z,0.027
2023-11-16T00:28:21.094Z,0.036
2023-11-16T00:30:20.899Z,0.036
2023-11-16T00:31:21.911Z,0.036
2023-11-16T00:32:21.938Z,0.036
2023-11-16T00:33:21.953Z,0.036
2023-11-16T00:35:21.384Z,0.036
2023-11-16T00:36:21.290Z,0.036
2023-11-16T00:37:20.976Z,0.036
2023-11-16T00:38:20.773Z,0.036
2023-11-16T00:39:21.800Z,0.036
2023-11-16T00:40:21.556Z,0.036
2023-11-16T00:41:21.333Z,0.036
2023-11-16T00:42:21.266Z,0.036
2023-11-16T00:44:21.452Z,0.045
2023-11-16T00:45:21.751Z,0.045
2023-11-16T00:46:22.127Z,0.045
2023-11-16T00:47:20.998Z,0.045
2023-11-16T00:48:21.572Z,0.045
2023-11-16T00:49:21.320Z,0.045
2023-11-16T00:51:21.304Z,0.045
2023-11-16T00:52:20.987Z,0.054
2023-11-16T00:53:20.778Z,0.062
2023-11-16T00:54:21.822Z,0.062
2023-11-16T00:55:21.637Z,0.062
2023-11-16T00:57:21.233Z,0.071
2023-11-16T00:58:20.993Z,0.080
2023-11-16T00:59:20.833Z,0.089
2023-11-16T01:00:22.267Z,0.098
2023-11-16T01:01:21.550Z,0.098
2023-11-16T01:04:21.103Z,0.107
2023-11-16T01:05:20.823Z,0.098
2023-11-16T01:06:21.744Z,0.107
2023-11-16T01:07:21.417Z,0.107
2023-11-16T01:08:21.020Z,0.107
2023-11-16T01:09:21.150Z,0.098
2023-11-16T01:10:20.833Z,0.089
2023-11-16T01:11:21.601Z,0.080
2023-11-16T01:12:21.935Z,0.089
2023-11-16T01:14:21.344Z,0.089
2023-11-16T01:15:21.259Z,0.080
2023-11-16T01:16:21.378Z,0.080
2023-11-16T01:19:21.535Z,0.089
2023-11-16T01:20:21.295Z,0.089
2023-11-16T01:21:21.282Z,0.089
2023-11-16T01:22:21.435Z,0.089
2023-11-16T01:23:21.580Z,0.098
2023-11-16T01:24:23.380Z,0.098
2023-11-16T01:25:21.215Z,0.089
2023-11-16T01:26:21.346Z,0.080
2023-11-16T01:27:21.560Z,0.071
2023-11-16T01:28:21.878Z,0.071
2023-11-16T01:30:21.731Z,0.062
2023-11-16T01:31:21.876Z,0.054
2023-11-16T01:32:21.625Z,0.054
2023-11-16T01:33:21.928Z,0.054
2023-11-16T01:34:21.577Z,0.036
2023-11-16T01:35:21.535Z,0.054
2023-11-16T01:36:21.406Z,0.054
2023-11-16T01:38:20.889Z,0.054
2023-11-16T01:39:21.951Z,0.062
2023-11-16T01:40:21.749Z,0.062
2023-11-16T01:41:21.245Z,0.062
2023-11-16T01:42:21.038Z,0.062
2023-11-16T01:43:20.666Z,0.062
2023-11-16T01:44:21.265Z,0.071
2023-11-16T01:45:21.109Z,0.071
2023-11-16T01:46:20.971Z,0.080
2023-11-16T01:47:20.547Z,0.080
2023-11-16T01:48:21.607Z,0.071
2023-11-16T01:49:21.421Z,0.071
2023-11-16T01:50:20.920Z,0.071
2023-11-16T01:51:22.254Z,0.071
2023-11-16T01:54:21.715Z,0.071
2023-11-16T01:55:21.224Z,0.071
2023-11-16T01:56:20.702Z,0.071
2023-11-16T01:57:21.589Z,0.071
2023-11-16T01:58:21.145Z,0.071
2023-11-16T01:59:20.678Z,0.071
2023-11-16T02:00:21.529Z,0.071
2023-11-16T02:01:21.731Z,0.062
2023-11-16T02:03:22.033Z,0.062
2023-11-16T02:04:26.211Z,0.071
2023-11-16T02:05:20.941Z,0.071
2023-11-16T02:06:22.052Z,0.062
2023-11-16T02:07:20.563Z,0.062
2023-11-16T02:08:21.492Z,0.062
2023-11-16T02:09:21.344Z,0.062
2023-11-16T02:11:24.969Z,0.062
2023-11-16T02:14:20.752Z,0.071
2023-11-16T02:15:21.484Z,0.080
2023-11-16T02:16:21.252Z,0.080
2023-11-16T02:17:20.813Z,0.080
2023-11-16T02:18:21.616Z,0.071
2023-11-16T02:19:21.116Z,0.071
2023-11-16T02:20:20.630Z,0.071
2023-11-16T02:21:21.269Z,0.071
2023-11-16T02:22:20.829Z,0.071
2023-11-16T02:23:21.326Z,0.071
2023-11-16T02:25:20.487Z,0.080
2023-11-16T02:26:21.306Z,0.080
2023-11-16T02:27:21.116Z,0.080
2023-11-16T02:28:20.617Z,0.080
2023-11-16T02:29:21.201Z,0.071
2023-11-16T02:30:21.008Z,0.071
2023-11-16T02:31:20.589Z,0.062
2023-11-16T02:32:21.301Z,0.054
2023-11-16T02:33:21.781Z,0.054
2023-11-16T02:35:20.951Z,0.054
2023-11-16T02:36:21.726Z,0.054
2023-11-16T02:37:21.240Z,0.054
2023-11-16T02:38:20.964Z,0.062
2023-11-16T02:39:21.967Z,0.054
2023-11-16T02:40:20.476Z,0.054
2023-11-16T02:41:20.928Z,0.054
2023-11-16T02:42:21.607Z,0.054
2023-11-16T02:43:21.205Z,0.054
2023-11-16T02:45:21.591Z,0.054
2023-11-16T02:46:21.080Z,0.054
2023-11-16T02:47:20.805Z,0.054
2023-11-16T02:48:22.288Z,0.054
2023-11-16T02:49:20.984Z,0.045
2023-11-16T02:50:20.537Z,0.054
2023-11-16T02:51:21.334Z,0.054
2023-11-16T02:52:20.862Z,0.054
2023-11-16T02:53:21.492Z,0.062
2023-11-16T02:54:21.131Z,0.054
2023-11-16T02:55:20.727Z,0.045
2023-11-16T02:56:21.464Z,0.045
2023-11-16T02:57:21.224Z,0.045
2023-11-16T02:58:20.822Z,0.036
2023-11-16T02:59:21.360Z,0.036
2023-11-16T03:00:21.485Z,0.036
2023-11-16T03:01:21.530Z,0.045
2023-11-16T03:02:21.015Z,0.054
2023-11-16T03:03:21.058Z,0.054
2023-11-16T03:04:21.223Z,0.054
2023-11-16T03:05:20.712Z,0.054
2023-11-16T03:06:21.537Z,0.054
2023-11-16T03:07:37.676Z,0.054
2023-11-16T03:10:21.479Z,0.045
2023-11-16T03:11:20.973Z,0.045
2023-11-16T03:12:20.552Z,0.045
2023-11-16T03:13:21.318Z,0.036
2023-11-16T03:14:20.800Z,0.036
2023-11-16T03:15:21.673Z,0.036
2023-11-16T03:16:21.422Z,0.045
2023-11-16T03:17:20.921Z,0.045
2023-11-16T03:18:21.805Z,0.054
2023-11-16T03:20:20.780Z,0.045
2023-11-16T03:21:21.549Z,0.045
2023-11-16T03:22:21.072Z,0.045
2023-11-16T03:23:20.602Z,0.045
2023-11-16T03:24:21.432Z,0.045
2023-11-16T03:25:20.892Z,0.045
2023-11-16T03:26:21.443Z,0.036
2023-11-16T03:27:21.131Z,0.036
2023-11-16T03:28:20.656Z,0.036
2023-11-16T03:29:21.310Z,0.045
2023-11-16T03:30:21.382Z,0.045
2023-11-16T03:32:20.777Z,0.062
2023-11-16T03:33:22.157Z,0.062
2023-11-16T03:34:20.734Z,0.054
2023-11-16T03:35:21.485Z,0.045
2023-11-16T03:36:21.335Z,0.036
2023-11-16T03:37:20.819Z,0.027
2023-11-16T03:38:21.370Z,0.027
2023-11-16T03:39:21.171Z,0.027
2023-11-16T03:40:20.775Z,0.027
2023-11-16T03:41:21.313Z,0.027
2023-11-16T03:42:20.954Z,0.027
2023-11-16T03:43:21.535Z,0.027
2023-11-16T03:44:21.048Z,0.036
2023-11-16T03:45:20.834Z,0.036
2023-11-16T03:46:21.627Z,0.045
2023-11-16T03:48:21.565Z,0.054
2023-11-16T03:50:20.965Z,0.062
2023-11-16T03:51:20.700Z,0.062
2023-11-16T03:52:21.437Z,0.062
2023-11-16T03:53:20.929Z,0.062
2023-11-16T03:54:21.703Z,0.071
2023-11-16T03:55:21.388Z,0.071
2023-11-16T03:56:20.985Z,0.071
2023-11-16T03:57:20.813Z,0.080
2023-11-16T03:58:21.385Z,0.080
2023-11-16T04:00:21.956Z,0.080
2023-11-16T04:01:20.567Z,0.080
2023-11-16T04:02:21.091Z,0.071
2023-11-16T04:03:21.417Z,0.071
2023-11-16T04:04:21.878Z,0.080
2023-11-16T04:05:21.460Z,0.098
2023-11-16T04:06:21.208Z,0.089
2023-11-16T04:09:21.123Z,0.071
2023-11-16T04:10:21.457Z,0.089
2023-11-16T04:11:20.954Z,0.089
2023-11-16T04:12:20.718Z,0.062
2023-11-16T04:13:21.299Z,0.045
2023-11-16T04:14:20.905Z,0.045
2023-11-16T04:15:22.297Z,0.045
2023-11-16T04:16:20.788Z,0.036
2023-11-16T04:17:21.522Z,0.036
2023-11-16T04:18:21.514Z,0.036
2023-11-16T04:19:21.802Z,0.027
2023-11-16T04:20:20.833Z,0.027
2023-11-16T04:21:21.500Z,0.036
2023-11-16T04:22:21.078Z,0.054
2023-11-16T04:23:20.536Z,0.045
2023-11-16T04:24:21.284Z,0.054
2023-11-16T04:25:21.234Z,0.071
2023-11-16T04:26:20.753Z,0.080
2023-11-16T04:27:21.362Z,0.089
2023-11-16T04:28:20.986Z,0.080
2023-11-16T04:31:21.229Z,0.071
2023-11-16T04:32:20.991Z,0.054
2023-11-16T04:33:20.802Z,0.054
2023-11-16T04:34:21.430Z,0.062
2023-11-16T04:35:21.096Z,0.071
2023-11-16T04:36:20.740Z,0.089
2023-11-16T04:37:21.368Z,0.080
2023-11-16T04:38:20.921Z,0.089
2023-11-16T04:39:21.616Z,0.089
2023-11-16T04:42:21.491Z,0.071
2023-11-16T04:43:21.312Z,0.062
2023-11-16T04:44:20.812Z,0.080
2023-11-16T04:45:21.619Z,0.080
2023-11-16T04:46:21.146Z,0.071
2023-11-16T04:47:20.628Z,0.071
2023-11-16T04:49:22.382Z,0.080
2023-11-16T04:50:21.180Z,0.080
2023-11-16T04:51:20.879Z,0.080
2023-11-16T04:52:21.492Z,0.080
2023-11-16T04:54:20.867Z,0.054
2023-11-16T04:55:26.564Z,0.045
2023-11-16T04:56:21.227Z,0.036
2023-11-16T04:57:20.814Z,0.036
2023-11-16T04:58:21.306Z,0.036
2023-11-16T04:59:20.826Z,0.027
2023-11-16T05:00:22.079Z,0.027
2023-11-16T05:02:21.364Z,0.027
2023-11-16T05:03:21.974Z,0.036
2023-11-16T05:04:21.239Z,0.036
2023-11-16T05:05:20.884Z,0.036
2023-11-16T05:06:22.033Z,0.036
2023-11-16T05:07:20.549Z,0.036
2023-11-16T05:08:21.085Z,0.036
2023-11-16T05:09:20.783Z,0.027
2023-11-16T05:10:21.987Z,0.027
2023-11-16T05:11:20.537Z,0.036
2023-11-16T05:12:21.383Z,0.036
2023-11-16T05:13:20.888Z,0.036
2023-11-16T05:14:21.465Z,0.045
2023-11-16T05:15:23.900Z,0.045
2023-11-16T05:16:22.454Z,0.045
2023-11-16T05:18:20.995Z,0.045
2023-11-16T05:19:20.515Z,0.045
2023-11-16T05:20:21.081Z,0.045
2023-11-16T05:21:25.135Z,0.054
2023-11-16T05:23:21.165Z,0.045
2023-11-16T05:24:20.864Z,0.054
2023-11-16T05:25:21.503Z,0.062
2023-11-16T05:27:20.736Z,0.071
2023-11-16T05:28:21.271Z,0.080
2023-11-16T05:29:20.760Z,0.098
2023-11-16T05:30:21.456Z,0.107
2023-11-16T05:31:21.146Z,0.125
2023-11-16T05:33:21.703Z,0.143
2023-11-16T05:34:21.303Z,0.161
2023-11-16T05:35:20.818Z,0.178
2023-11-16T05:36:21.482Z,0.187
2023-11-16T05:37:21.046Z,0.205
2023-11-16T05:38:20.560Z,0.223
2023-11-16T05:39:21.197Z,0.241
2023-11-16T05:40:20.813Z,0.259
2023-11-16T05:41:21.413Z,0.285
2023-11-16T05:42:21.079Z,0.312
2023-11-16T05:43:20.623Z,0.348
2023-11-16T05:44:21.093Z,0.392
2023-11-16T05:45:21.125Z,0.446
2023-11-16T05:46:21.074Z,0.526
2023-11-16T05:48:21.606Z,0.687
2023-11-16T05:49:21.167Z,0.794
2023-11-16T05:50:20.716Z,0.910
2023-11-16T05:51:21.755Z,1.070
2023-11-16T05:52:21.311Z,1.257
2023-11-16T05:53:20.863Z,1.489
2023-11-16T05:54:21.727Z,1.765
2023-11-16T05:56:20.783Z,2.559
2023-11-16T05:57:21.512Z,3.049
2023-11-16T05:59:20.588Z,4.289
2023-11-16T06:00:21.524Z,5.091
2023-11-16T06:01:21.395Z,6.242
2023-11-16T06:02:20.955Z,7.802
2023-11-16T06:03:22.010Z,9.675
2023-11-16T06:04:21.245Z,11.645
2023-11-16T06:05:25.762Z,14.106
2023-11-16T06:06:21.514Z,17.066
2023-11-16T06:09:21.438Z,29.692
2023-11-16T06:10:20.992Z,35.881
2023-11-16T06:11:20.518Z,42.898
2023-11-16T06:12:21.214Z,52.091
2023-11-16T06:13:20.693Z,62.203
2023-11-16T06:14:24.422Z,72.813
2023-11-16T06:15:21.174Z,83.157
2023-11-16T06:16:20.868Z,96.354
2023-11-16T06:17:21.426Z,112.439
2023-11-16T06:18:21.501Z,128.177
2023-11-16T06:19:20.966Z,144.905
2023-11-16T06:20:21.482Z,164.183
2023-11-16T06:22:20.619Z,205.672
2023-11-16T06:23:21.093Z,222.462
2023-11-16T06:24:21.171Z,235.364
2023-11-16T06:25:21.221Z,247.455
2023-11-16T06:26:20.761Z,260.242
2023-11-16T06:27:21.575Z,273.064
2023-11-16T06:28:21.118Z,282.516
2023-11-16T06:30:21.819Z,300.402
2023-11-16T06:31:21.457Z,312.387
2023-11-16T06:33:21.010Z,351.878
2023-11-16T06:34:22.490Z,367.679
2023-11-16T06:36:21.071Z,416.792
2023-11-16T06:37:20.558Z,457.478
2023-11-16T06:38:21.064Z,504.933
2023-11-16T06:39:20.854Z,533.502
2023-11-16T06:40:21.448Z,600.109
2023-11-16T06:41:20.987Z,668.161
2023-11-16T06:42:20.628Z,719.843
2023-11-16T06:43:21.176Z,771.363
2023-11-16T06:44:20.644Z,822.723
2023-11-16T06:45:21.571Z,883.071
2023-11-16T06:46:21.326Z,935.234
2023-11-16T06:47:20.912Z,969.901
2023-11-16T06:48:20.868Z,1020.299
2023-11-16T06:49:21.414Z,1105.684
2023-11-16T06:50:20.886Z,1204.874
2023-11-16T06:51:21.680Z,1295.717
2023-11-16T06:52:21.193Z,1390.251
2023-11-16T06:53:20.693Z,1502.761
2023-11-16T06:54:21.444Z,1626.989
2023-11-16T06:55:21.238Z,1745.116
2023-11-16T06:56:20.796Z,1858.750
2023-11-16T06:57:21.637Z,2027.276
2023-11-16T06:58:21.166Z,2164.985
2023-11-16T06:59:20.955Z,2251.333
2023-11-16T07:00:20.998Z,2276.853
2023-11-16T07:01:20.663Z,2330.941
2023-11-16T07:02:21.461Z,2355.819
2023-11-16T07:03:21.673Z,2340.732
2023-11-16T07:04:21.944Z,2267.384
2023-11-16T07:05:20.526Z,2121.810
2023-11-16T07:06:21.211Z,1959.224
2023-11-16T07:07:20.763Z,1768.870
2023-11-16T07:08:21.322Z,1568.727
2023-11-16T07:09:21.064Z,1525.713
2023-11-16T07:10:20.678Z,1688.300
2023-11-16T07:11:21.216Z,1883.146
2023-11-16T07:12:21.013Z,1992.126
2023-11-16T07:13:20.536Z,1917.012
2023-11-16T07:14:21.039Z,1614.149
2023-11-16T07:15:21.116Z,1388.967
2023-11-16T07:16:20.715Z,1274.370
2023-11-16T07:17:22.456Z,1160.896
2023-11-16T07:18:22.765Z,1191.552
2023-11-16T07:19:21.657Z,1330.545
2023-11-16T07:20:21.293Z,1502.120
2023-11-16T07:21:20.994Z,1646.409
2023-11-16T07:22:20.554Z,1956.334
2023-11-16T07:23:21.093Z,2299.965
2023-11-16T07:24:20.786Z,2533.974
2023-11-16T07:25:21.743Z,2369.140
2023-11-16T07:28:20.775Z,2160.812
2023-11-16T07:29:21.302Z,2259.198
2023-11-16T07:30:21.155Z,2363.523
2023-11-16T07:31:21.110Z,2126.465
2023-11-16T07:32:20.809Z,1777.698
2023-11-16T07:33:23.470Z,1439.364
2023-11-16T07:34:21.247Z,1325.088
2023-11-16T07:35:20.817Z,1447.229
2023-11-16T07:36:21.539Z,1522.503
2023-11-16T07:37:21.136Z,1466.809
2023-11-16T07:38:20.651Z,1358.472
2023-11-16T07:39:21.473Z,1425.561
2023-11-16T07:40:21.364Z,1609.655
2023-11-16T07:41:21.131Z,1584.135
2023-11-16T07:43:20.536Z,2497.059
2023-11-16T07:44:21.143Z,2714.697
2023-11-16T07:45:20.880Z,2995.893
2023-11-16T07:46:21.570Z,2794.305
2023-11-16T07:47:21.085Z,2275.087
2023-11-16T07:48:20.920Z,2049.264
2023-11-16T07:49:21.706Z,2222.123
2023-11-16T07:50:21.484Z,2355.498
2023-11-16T07:51:21.457Z,2656.436
2023-11-16T07:52:21.469Z,2637.176
2023-11-16T07:55:21.003Z,3745.588
2023-11-16T07:56:20.500Z,4056.477
2023-11-16T07:57:21.369Z,4330.129
2023-11-16T07:58:21.080Z,4266.571
2023-11-16T08:00:24.951Z,5056.071
2023-11-16T08:01:20.413Z,4905.843
2023-11-16T08:02:20.934Z,4439.590
2023-11-16T08:03:23.015Z,4714.848
2023-11-16T08:04:21.681Z,5896.770
2023-11-16T08:05:22.213Z,7165.683
2023-11-16T08:06:20.912Z,7732.890
2023-11-16T08:07:20.466Z,7643.492
2023-11-16T08:08:21.052Z,7681.370
2023-11-16T08:09:25.375Z,7750.866
2023-11-16T08:11:21.607Z,7941.059
2023-11-16T08:12:21.235Z,8041.050
2023-11-16T08:13:20.757Z,7979.418
2023-11-16T08:14:21.360Z,7768.521
2023-11-16T08:15:21.233Z,7653.924
2023-11-16T08:16:21.377Z,7490.695
2023-11-16T08:17:20.941Z,7235.821
2023-11-16T08:18:21.717Z,7974.603
2023-11-16T08:19:21.352Z,10776.291
2023-11-16T08:20:20.878Z,14030.268
2023-11-16T08:21:21.604Z,16381.111
2023-11-16T08:22:21.089Z,17004.012
2023-11-16T08:23:20.738Z,16634.541
2023-11-16T08:24:21.376Z,16694.246
2023-11-16T08:25:21.510Z,17599.627
2023-11-16T08:26:22.305Z,18308.717
2023-11-16T08:27:21.092Z,18462.475
2023-11-16T08:28:20.666Z,18756.191
2023-11-16T08:29:21.240Z,19760.760
2023-11-16T08:30:20.913Z,20700.488
2023-11-16T08:31:25.153Z,21599.447
2023-11-16T08:32:20.735Z,22122.998
2023-11-16T08:33:21.788Z,22425.061
2023-11-16T08:34:21.449Z,22195.064
2023-11-16T08:35:20.942Z,22107.912
2023-11-16T08:36:22.165Z,22575.449
2023-11-16T08:37:20.778Z,22922.289
2023-11-16T08:38:21.517Z,23638.922
2023-11-16T08:39:21.278Z,24373.529
2023-11-16T08:40:21.001Z,24345.764
2023-11-16T08:41:20.577Z,22835.459
2023-11-16T08:42:21.237Z,21924.461
2023-11-16T08:43:20.917Z,22010.648
2023-11-16T08:44:25.359Z,22078.541
2023-11-16T08:45:21.473Z,27657.359
2023-11-16T08:46:21.732Z,28661.609
2023-11-16T08:47:20.756Z,29709.994
2023-11-16T08:48:22.239Z,33210.820
2023-11-16T08:49:20.975Z,32788.062
2023-11-16T08:50:20.515Z,30249.756
2023-11-16T08:51:24.481Z,26989.199
2023-11-16T08:52:20.472Z,26322.482
2023-11-16T08:53:21.519Z,26993.051
2023-11-16T08:54:21.219Z,28741.697
2023-11-16T08:55:20.836Z,22880.719
2023-11-16T08:57:20.704Z,19326.768
2023-11-16T08:58:21.348Z,17827.537
2023-11-16T08:59:21.870Z,16950.566
2023-11-16T09:00:21.584Z,17646.814
2023-11-16T09:01:21.727Z,18295.555
2023-11-16T09:02:24.889Z,18660.371
2023-11-16T09:03:22.150Z,18910.432
2023-11-16T09:04:22.464Z,19000.150
2023-11-16T09:05:21.256Z,20700.648
2023-11-16T09:06:20.833Z,29437.465
2023-11-16T09:07:21.420Z,30368.365
2023-11-16T09:08:21.424Z,28900.914
2023-11-16T09:09:21.319Z,29980.758
2023-11-16T09:10:20.790Z,31276.314
2023-11-16T09:11:21.349Z,27628.471
2023-11-16T09:12:21.828Z,24318.158
2023-11-16T09:13:21.281Z,30591.781
2023-11-16T09:15:20.797Z,33535.031
2023-11-16T09:16:21.398Z,35210.008
2023-11-16T09:17:23.338Z,30269.818
2023-11-16T09:18:24.011Z,30977.623
2023-11-16T09:19:21.401Z,31260.906
2023-11-16T09:20:20.927Z,39048.047
2023-11-16T09:21:21.653Z,39602.090
2023-11-16T09:22:21.284Z,37966.273
2023-11-16T09:23:24.328Z,38434.773
2023-11-16T09:24:20.925Z,39063.133
2023-11-16T09:25:21.549Z,41894.512
2023-11-16T09:27:21.190Z,27320.631
2023-11-16T09:30:21.050Z,42414.691
2023-11-16T09:31:20.863Z,41387.652
2023-11-16T09:32:22.519Z,45792.738
2023-11-16T09:33:21.394Z,33575.797
2023-11-16T09:36:22.609Z,28389.400
2023-11-16T09:37:21.302Z,31930.191
2023-11-16T09:38:20.928Z,39591.820
2023-11-16T09:39:21.502Z,52451.559
2023-11-16T09:40:23.965Z,53539.910
2023-11-16T09:41:21.060Z,49798.977
2023-11-16T09:42:21.388Z,47421.973
2023-11-16T09:43:20.965Z,41191.523
2023-11-16T09:44:21.553Z,32139.482
2023-11-16T09:46:21.473Z,25404.262
2023-11-16T09:47:21.052Z,26530.008
2023-11-16T09:48:20.941Z,37397.785
2023-11-16T09:50:20.807Z,35012.754
2023-11-16T09:51:21.512Z,36154.551
2023-11-16T09:52:21.270Z,36041.078
2023-11-16T09:53:20.820Z,45247.840
2023-11-16T09:54:21.653Z,35668.559
2023-11-16T09:55:21.311Z,35793.746
2023-11-16T09:56:30.248Z,41872.203
2023-11-16T09:57:20.599Z,36816.613
2023-11-16T09:58:21.656Z,32115.088
2023-11-16T09:59:21.204Z,33130.410
2023-11-16T10:00:20.932Z,34204.797
2023-11-16T10:01:21.254Z,33174.227
2023-11-16T10:02:21.253Z,33792.633
2023-11-16T10:03:21.505Z,31062.527
2023-11-16T10:04:22.094Z,31781.408
2023-11-16T10:05:22.492Z,28609.607
2023-11-16T10:06:21.263Z,26020.100
2023-11-16T10:07:20.767Z,25469.744
2023-11-16T10:08:21.378Z,20727.611
2023-11-16T10:11:21.117Z,19184.244
2023-11-16T10:12:20.846Z,19862.357
2023-11-16T10:13:21.405Z,21079.107
2023-11-16T10:14:20.955Z,24025.566
2023-11-16T10:16:21.571Z,23864.424
2023-11-16T10:17:21.224Z,21023.574
2023-11-16T10:18:20.987Z,20819.738
2023-11-16T10:19:20.519Z,20547.691
2023-11-16T10:20:21.103Z,20032.166
2023-11-16T10:21:20.784Z,19561.740
2023-11-16T10:22:21.459Z,19707.314
2023-11-16T10:23:21.013Z,20413.834
2023-11-16T10:24:20.739Z,20426.836
2023-11-16T10:25:21.422Z,20251.730
2023-11-16T10:26:20.989Z,19823.516
2023-11-16T10:27:20.664Z,19476.996
2023-11-16T10:28:21.254Z,19732.832
2023-11-16T10:29:20.756Z,21258.867
2023-11-16T10:30:21.557Z,22732.898
2023-11-16T10:31:21.456Z,22414.467
2023-11-16T10:32:20.981Z,21721.268
2023-11-16T10:33:20.625Z,22461.012
2023-11-16T10:34:21.181Z,23388.701
2023-11-16T10:35:20.792Z,23341.676
2023-11-16T10:36:21.531Z,23293.205
2023-11-16T10:37:21.115Z,23340.391
2023-11-16T10:38:20.596Z,22375.465
2023-11-16T10:39:21.353Z,21908.893
2023-11-16T10:40:20.963Z,21466.555
2023-11-16T10:41:21.496Z,21410.539
2023-11-16T10:42:21.077Z,21595.115
2023-11-16T10:43:20.674Z,22573.361
2023-11-16T10:44:21.363Z,24664.195
2023-11-16T10:45:20.932Z,24831.918
2023-11-16T10:46:22.588Z,25214.551
2023-11-16T10:47:21.622Z,25805.350
2023-11-16T10:48:21.354Z,26263.738
2023-11-16T10:50:20.814Z,24708.172
2023-11-16T10:51:21.414Z,23854.152
2023-11-16T10:52:20.952Z,24617.490
2023-11-16T10:53:21.600Z,23568.623
2023-11-16T10:54:21.447Z,23774.062
2023-11-16T10:55:21.105Z,24348.973
2023-11-16T10:56:20.734Z,23927.982
2023-11-16T10:57:21.335Z,22878.473
2023-11-16T10:58:20.818Z,21787.715
2023-11-16T10:59:21.395Z,21430.924
2023-11-16T11:01:25.844Z,24227.957
2023-11-16T11:02:21.680Z,25993.938
2023-11-16T11:04:25.288Z,25488.043
2023-11-16T11:05:21.326Z,25789.943
2023-11-16T11:06:21.225Z,25098.830
2023-11-16T11:07:21.097Z,24837.857
2023-11-16T11:08:20.816Z,25365.420
2023-11-16T11:09:21.398Z,25447.275
2023-11-16T11:10:20.923Z,24354.592
2023-11-16T11:11:21.470Z,23478.422
2023-11-16T11:12:21.727Z,22940.266
2023-11-16T11:13:21.359Z,22442.875
2023-11-16T11:15:23.163Z,21449.701
2023-11-16T11:16:21.181Z,23729.443
2023-11-16T11:17:20.962Z,26971.223
2023-11-16T11:18:21.663Z,26915.850
2023-11-16T11:19:21.346Z,27283.074
2023-11-16T11:20:20.913Z,24351.221
2023-11-16T11:21:21.573Z,23498.162
2023-11-16T11:22:21.343Z,24986.318
2023-11-16T11:24:21.944Z,25135.584
2023-11-16T11:25:21.628Z,24249.463
2023-11-16T11:26:21.156Z,21951.586
2023-11-16T11:27:20.742Z,21106.873
2023-11-16T11:28:21.376Z,20738.848
2023-11-16T11:29:21.115Z,20107.922
2023-11-16T11:30:20.726Z,19938.273
2023-11-16T11:31:22.116Z,19160.330
2023-11-16T11:32:24.253Z,18917.172
2023-11-16T11:33:25.295Z,18715.264
2023-11-16T11:34:21.273Z,18848.156
2023-11-16T11:35:20.949Z,19137.539
2023-11-16T11:36:21.724Z,19231.592
2023-11-16T11:37:26.150Z,19533.652
2023-11-16T11:38:20.550Z,20767.576
2023-11-16T11:39:21.130Z,20886.668
2023-11-16T11:42:21.027Z,23423.209
2023-11-16T11:43:20.532Z,23523.361
2023-11-16T11:44:24.491Z,23757.211
2023-11-16T11:45:21.136Z,22994.996
2023-11-16T11:46:21.187Z,23250.672
2023-11-16T11:47:20.854Z,23453.383
2023-11-16T11:48:21.608Z,23432.840
2023-11-16T11:49:21.287Z,23436.211
2023-11-16T11:50:24.139Z,22960.006
2023-11-16T11:51:20.727Z,22382.047
2023-11-16T11:52:20.870Z,21927.350
2023-11-16T11:53:21.544Z,21503.629
2023-11-16T11:54:21.227Z,20899.988
2023-11-16T11:55:21.133Z,20099.094
2023-11-16T11:56:20.671Z,19330.619
2023-11-16T11:57:34.970Z,18680.596
2023-11-16T12:00:24.988Z,16306.961
2023-11-16T12:02:21.215Z,14959.724
2023-11-16T12:03:21.639Z,14532.954
2023-11-16T12:04:31.833Z,14094.789
2023-11-16T12:06:22.110Z,13328.883
2023-11-16T12:08:20.644Z,12656.869
2023-11-16T12:09:21.321Z,12308.103
2023-11-16T12:10:20.864Z,11878.926
2023-11-16T12:12:20.791Z,10898.753
2023-11-16T12:13:21.936Z,10472.465
2023-11-16T12:14:20.574Z,10183.243
2023-11-16T12:15:21.229Z,9894.504
2023-11-16T12:16:21.575Z,9606.086
2023-11-16T12:17:21.141Z,9294.395
2023-11-16T12:18:25.953Z,8994.741
2023-11-16T12:19:20.514Z,8685.939
2023-11-16T12:20:21.109Z,8478.573
2023-11-16T12:21:20.773Z,8341.185
2023-11-16T12:22:21.668Z,8301.060
2023-11-16T12:24:22.242Z,8729.595
2023-11-16T12:25:20.796Z,9070.657
2023-11-16T12:26:21.380Z,9337.088
2023-11-16T12:27:21.008Z,9526.317
2023-11-16T12:28:20.564Z,9683.607
2023-11-16T12:29:21.245Z,9768.351
2023-11-16T12:30:24.031Z,9809.760
2023-11-16T12:31:21.148Z,9826.773
2023-11-16T12:32:20.765Z,9781.833
2023-11-16T12:33:21.738Z,9651.988
2023-11-16T12:34:21.308Z,9346.396
2023-11-16T12:36:23.467Z,8488.203
2023-11-16T12:37:21.099Z,8042.495
2023-11-16T12:38:20.640Z,7603.206
2023-11-16T12:40:20.765Z,6855.437
2023-11-16T12:41:24.580Z,6577.611
2023-11-16T12:42:20.611Z,6341.676
2023-11-16T12:43:21.473Z,6150.360
2023-11-16T12:44:20.994Z,5981.835
2023-11-16T12:46:21.846Z,5744.937
2023-11-16T12:47:38.096Z,5708.183
2023-11-16T12:48:20.910Z,5722.949
2023-11-16T12:49:21.845Z,5754.888
2023-11-16T12:50:21.483Z,5757.456
2023-11-16T12:51:21.371Z,5707.220
2023-11-16T12:52:20.957Z,5644.464
2023-11-16T12:54:21.321Z,5625.043
2023-11-16T12:55:21.152Z,5694.701
2023-11-16T12:57:20.671Z,6022.923
2023-11-16T12:58:21.225Z,6339.589
2023-11-16T12:59:24.449Z,6791.558
2023-11-16T13:00:20.956Z,7425.533
2023-11-16T13:01:21.955Z,8145.696
2023-11-16T13:02:20.710Z,8771.325
2023-11-16T13:03:24.828Z,9139.512
2023-11-16T13:04:21.805Z,9150.105
2023-11-16T13:05:27.064Z,8897.478
2023-11-16T13:06:20.863Z,8618.368
2023-11-16T13:07:21.617Z,8470.227
2023-11-16T13:09:20.903Z,8907.269
2023-11-16T13:10:21.103Z,9395.510
2023-11-16T13:11:22.775Z,9859.996
2023-11-16T13:12:31.302Z,10205.232
2023-11-16T13:15:21.048Z,10026.756
2023-11-16T13:16:21.558Z,9480.093
2023-11-16T13:17:21.238Z,8683.531
2023-11-16T13:18:20.901Z,7804.794
2023-11-16T13:19:21.611Z,7060.395
2023-11-16T13:20:21.252Z,6700.554
2023-11-16T13:22:20.749Z,7149.312
2023-11-16T13:23:25.669Z,7602.403
2023-11-16T13:24:21.201Z,7909.279
2023-11-16T13:25:20.813Z,7898.205
2023-11-16T13:26:21.409Z,7487.165
2023-11-16T13:27:26.409Z,6909.846
2023-11-16T13:28:21.936Z,6401.703
2023-11-16T13:29:23.604Z,6045.714
2023-11-16T13:30:22.463Z,5784.420
2023-11-16T13:31:21.897Z,5607.709
2023-11-16T13:32:21.597Z,5471.766
2023-11-16T13:35:24.441Z,4953.512
2023-11-16T13:36:20.903Z,4698.477
2023-11-16T13:37:21.583Z,4535.409
2023-11-16T13:39:20.685Z,4461.579
2023-11-16T13:40:22.081Z,4389.996
2023-11-16T13:41:23.582Z,4207.989
2023-11-16T13:42:21.071Z,3915.397
2023-11-16T13:43:20.819Z,3582.360
2023-11-16T13:44:21.451Z,3231.828
2023-11-16T13:45:21.001Z,2893.173
2023-11-16T13:46:21.133Z,2610.372
2023-11-16T13:47:20.920Z,2414.241
2023-11-16T13:48:21.727Z,2311.521